sensor_id;sensor_type;location;lat;lon;timestamp;temperature;humidity
26270;DHT22;15937;50.612;6.656;2023-03-01T00:01:00;-2.00;99.90
26270;DHT22;15937;50.612;6.656;2023-03-01T00:05:02;-2.10;99.90
26270;DHT22;15937;50.612;6.656;2023-03-01T00:09:04;-2.20;99.90
26270;DHT22;15937;50.612;6.656;2023-03-01T00:13:06;-2.10;99.90
26270;DHT22;15937;50.612;6.656;2023-03-01T00:17:07;-2.10;99.90
26270;DHT22;15937;50.612;6.656;2023-03-01T00:21:09;-2.20;99.90
26270;DHT22;15937;50.612;6.656;2023-03-01T00:25:10;-2.10;99.90
26270;DHT22;15937;50.612;6.656;2023-03-01T00:29:12;-2.10;99.90
26270;DHT22;15937;50.612;6.656;2023-03-01T00:33:14;-2.20;99.90
26270;DHT22;15937;50.612;6.656;2023-03-01T00:37:15;-2.30;99.90
26270;DHT22;15937;50.612;6.656;2023-03-01T00:41:18;-2.30;99.90
26270;DHT22;15937;50.612;6.656;2023-03-01T00:45:19;-2.60;99.90
26270;DHT22;15937;50.612;6.656;2023-03-01T00:49:21;-3.00;99.90
26270;DHT22;15937;50.612;6.656;2023-03-01T00:53:25;-2.70;99.90
26270;DHT22;15937;50.612;6.656;2023-03-01T00:57:27;-2.60;99.90
26270;DHT22;15937;50.612;6.656;2023-03-01T01:01:29;-2.60;99.90
26270;DHT22;15937;50.612;6.656;2023-03-01T01:05:33;-2.60;99.90
26270;DHT22;15937;50.612;6.656;2023-03-01T01:09:35;-2.70;99.90
26270;DHT22;15937;50.612;6.656;2023-03-01T01:13:38;-2.90;99.90
26270;DHT22;15937;50.612;6.656;2023-03-01T01:17:40;-2.60;99.90
26270;DHT22;15937;50.612;6.656;2023-03-01T01:21:42;-2.70;99.90
26270;DHT22;15937;50.612;6.656;2023-03-01T01:25:44;-2.60;99.90
26270;DHT22;15937;50.612;6.656;2023-03-01T01:29:46;-2.60;99.90
26270;DHT22;15937;50.612;6.656;2023-03-01T01:33:47;-2.50;99.90
26270;DHT22;15937;50.612;6.656;2023-03-01T01:37:49;-2.50;99.90
26270;DHT22;15937;50.612;6.656;2023-03-01T01:41:50;-2.50;99.90
26270;DHT22;15937;50.612;6.656;2023-03-01T01:45:54;-2.80;99.90
26270;DHT22;15937;50.612;6.656;2023-03-01T01:49:59;-2.70;99.90
26270;DHT22;15937;50.612;6.656;2023-03-01T01:54:00;-2.80;99.90
26270;DHT22;15937;50.612;6.656;2023-03-01T01:58:03;-2.80;99.90
26270;DHT22;15937;50.612;6.656;2023-03-01T02:17:17;-3.20;99.90
26270;DHT22;15937;50.612;6.656;2023-03-01T02:21:30;-3.10;99.90
26270;DHT22;15937;50.612;6.656;2023-03-01T02:25:40;-3.00;99.90
26270;DHT22;15937;50.612;6.656;2023-03-01T02:29:47;-3.00;99.90
26270;DHT22;15937;50.612;6.656;2023-03-01T02:33:49;-3.00;99.90
26270;DHT22;15937;50.612;6.656;2023-03-01T02:37:50;-3.00;99.90
26270;DHT22;15937;50.612;6.656;2023-03-01T02:41:52;-3.00;99.90
26270;DHT22;15937;50.612;6.656;2023-03-01T02:45:57;-3.10;99.90
26270;DHT22;15937;50.612;6.656;2023-03-01T02:49:59;-3.10;99.90
26270;DHT22;15937;50.612;6.656;2023-03-01T02:58:21;-3.20;99.90
26270;DHT22;15937;50.612;6.656;2023-03-01T03:07:20;-3.30;99.90
26270;DHT22;15937;50.612;6.656;2023-03-01T03:11:21;-3.30;99.90
26270;DHT22;15937;50.612;6.656;2023-03-01T03:15:23;-3.40;99.90
26270;DHT22;15937;50.612;6.656;2023-03-01T03:19:25;-3.70;99.90
26270;DHT22;15937;50.612;6.656;2023-03-01T03:23:26;-3.60;99.90
26270;DHT22;15937;50.612;6.656;2023-03-01T03:27:28;-3.80;99.90
26270;DHT22;15937;50.612;6.656;2023-03-01T03:31:29;-3.70;99.90
26270;DHT22;15937;50.612;6.656;2023-03-01T03:35:32;-3.80;99.90
26270;DHT22;15937;50.612;6.656;2023-03-01T03:39:39;-3.70;99.90
26270;DHT22;15937;50.612;6.656;2023-03-01T03:44:04;-3.70;99.90
26270;DHT22;15937;50.612;6.656;2023-03-01T03:48:29;-4.00;99.90
26270;DHT22;15937;50.612;6.656;2023-03-01T03:52:55;-3.70;99.90
26270;DHT22;15937;50.612;6.656;2023-03-01T04:17:24;-4.20;99.90
26270;DHT22;15937;50.612;6.656;2023-03-01T04:21:50;-4.20;99.90
26270;DHT22;15937;50.612;6.656;2023-03-01T04:26:16;-4.20;99.90
26270;DHT22;15937;50.612;6.656;2023-03-01T04:30:42;-4.10;99.90
26270;DHT22;15937;50.612;6.656;2023-03-01T04:34:44;-4.00;99.90
26270;DHT22;15937;50.612;6.656;2023-03-01T04:38:46;-4.40;99.90
26270;DHT22;15937;50.612;6.656;2023-03-01T04:42:48;-4.20;99.90
26270;DHT22;15937;50.612;6.656;2023-03-01T04:46:50;-4.50;99.90
26270;DHT22;15937;50.612;6.656;2023-03-01T04:50:52;-4.30;99.90
26270;DHT22;15937;50.612;6.656;2023-03-01T04:59:58;-4.60;99.90
26270;DHT22;15937;50.612;6.656;2023-03-01T05:04:00;-4.70;99.90
26270;DHT22;15937;50.612;6.656;2023-03-01T05:08:05;-4.50;99.90
26270;DHT22;15937;50.612;6.656;2023-03-01T05:12:22;-4.50;99.90
26270;DHT22;15937;50.612;6.656;2023-03-01T05:16:26;-4.40;99.90
26270;DHT22;15937;50.612;6.656;2023-03-01T05:20:29;-4.30;99.90
26270;DHT22;15937;50.612;6.656;2023-03-01T05:24:32;-4.30;99.90
26270;DHT22;15937;50.612;6.656;2023-03-01T05:28:34;-4.30;99.90
26270;DHT22;15937;50.612;6.656;2023-03-01T05:32:36;-4.30;99.90
26270;DHT22;15937;50.612;6.656;2023-03-01T05:41:41;-4.40;99.90
26270;DHT22;15937;50.612;6.656;2023-03-01T05:50:46;-4.60;99.90
26270;DHT22;15937;50.612;6.656;2023-03-01T05:54:49;-4.40;99.90
26270;DHT22;15937;50.612;6.656;2023-03-01T06:03:53;-4.40;99.90
26270;DHT22;15937;50.612;6.656;2023-03-01T06:07:57;-4.40;99.90
26270;DHT22;15937;50.612;6.656;2023-03-01T06:12:00;-4.40;99.90
26270;DHT22;15937;50.612;6.656;2023-03-01T06:16:04;-4.40;99.90
26270;DHT22;15937;50.612;6.656;2023-03-01T06:20:07;-4.70;99.90
26270;DHT22;15937;50.612;6.656;2023-03-01T06:24:09;-4.50;99.90
26270;DHT22;15937;50.612;6.656;2023-03-01T06:28:11;-4.50;99.90
26270;DHT22;15937;50.612;6.656;2023-03-01T06:32:12;-4.50;99.90
26270;DHT22;15937;50.612;6.656;2023-03-01T06:36:14;-4.50;99.90
26270;DHT22;15937;50.612;6.656;2023-03-01T06:40:19;-4.60;99.90
26270;DHT22;15937;50.612;6.656;2023-03-01T06:44:22;-4.50;99.90
26270;DHT22;15937;50.612;6.656;2023-03-01T06:48:24;-4.70;99.90
26270;DHT22;15937;50.612;6.656;2023-03-01T06:52:26;-4.60;99.90
26270;DHT22;15937;50.612;6.656;2023-03-01T06:56:27;-4.60;99.90
26270;DHT22;15937;50.612;6.656;2023-03-01T07:00:30;-4.90;99.90
26270;DHT22;15937;50.612;6.656;2023-03-01T07:04:32;-4.50;99.90
26270;DHT22;15937;50.612;6.656;2023-03-01T07:08:33;-4.40;99.90
26270;DHT22;15937;50.612;6.656;2023-03-01T07:12:35;-4.20;99.90
26270;DHT22;15937;50.612;6.656;2023-03-01T07:16:38;-4.30;99.90
26270;DHT22;15937;50.612;6.656;2023-03-01T07:20:39;-4.30;99.90
26270;DHT22;15937;50.612;6.656;2023-03-01T07:24:41;-4.20;99.90
26270;DHT22;15937;50.612;6.656;2023-03-01T07:28:43;-4.20;99.90
26270;DHT22;15937;50.612;6.656;2023-03-01T07:32:45;-3.80;99.90
26270;DHT22;15937;50.612;6.656;2023-03-01T07:36:47;-3.40;99.90
26270;DHT22;15937;50.612;6.656;2023-03-01T07:40:49;-3.10;99.90
26270;DHT22;15937;50.612;6.656;2023-03-01T07:44:50;-3.10;99.90
26270;DHT22;15937;50.612;6.656;2023-03-01T07:48:52;-2.90;99.90
26270;DHT22;15937;50.612;6.656;2023-03-01T07:52:54;-2.80;99.90
26270;DHT22;15937;50.612;6.656;2023-03-01T07:56:56;-2.60;99.90
26270;DHT22;15937;50.612;6.656;2023-03-01T08:01:00;-2.40;99.90
26270;DHT22;15937;50.612;6.656;2023-03-01T08:05:05;-2.20;99.90
26270;DHT22;15937;50.612;6.656;2023-03-01T08:09:06;-2.00;99.90
26270;DHT22;15937;50.612;6.656;2023-03-01T08:13:09;-1.80;99.90
26270;DHT22;15937;50.612;6.656;2023-03-01T08:17:12;-1.70;99.90
26270;DHT22;15937;50.612;6.656;2023-03-01T08:21:16;-1.60;99.90
26270;DHT22;15937;50.612;6.656;2023-03-01T08:25:18;-1.50;99.90
26270;DHT22;15937;50.612;6.656;2023-03-01T08:29:20;-1.20;99.90
26270;DHT22;15937;50.612;6.656;2023-03-01T08:33:22;-1.20;99.90
26270;DHT22;15937;50.612;6.656;2023-03-01T08:37:24;-1.00;99.90
26270;DHT22;15937;50.612;6.656;2023-03-01T08:41:26;-0.90;99.90
26270;DHT22;15937;50.612;6.656;2023-03-01T08:45:28;-0.80;99.90
26270;DHT22;15937;50.612;6.656;2023-03-01T08:49:29;-0.90;99.90
26270;DHT22;15937;50.612;6.656;2023-03-01T08:53:31;-0.60;99.90
26270;DHT22;15937;50.612;6.656;2023-03-01T08:57:33;-0.50;99.90
26270;DHT22;15937;50.612;6.656;2023-03-01T09:01:34;-0.40;99.90
26270;DHT22;15937;50.612;6.656;2023-03-01T09:05:36;-0.40;99.90
26270;DHT22;15937;50.612;6.656;2023-03-01T09:09:38;-0.20;99.90
26270;DHT22;15937;50.612;6.656;2023-03-01T09:13:39;0.10;99.90
26270;DHT22;15937;50.612;6.656;2023-03-01T09:17:44;0.10;99.90
26270;DHT22;15937;50.612;6.656;2023-03-01T09:21:46;0.30;99.90
26270;DHT22;15937;50.612;6.656;2023-03-01T09:25:53;0.40;99.90
26270;DHT22;15937;50.612;6.656;2023-03-01T09:29:55;0.70;99.90
26270;DHT22;15937;50.612;6.656;2023-03-01T09:33:57;0.90;99.90
26270;DHT22;15937;50.612;6.656;2023-03-01T09:37:59;1.00;99.90
26270;DHT22;15937;50.612;6.656;2023-03-01T09:42:02;1.10;99.90
26270;DHT22;15937;50.612;6.656;2023-03-01T09:46:06;1.00;99.90
26270;DHT22;15937;50.612;6.656;2023-03-01T09:50:13;1.00;99.90
26270;DHT22;15937;50.612;6.656;2023-03-01T09:54:18;1.10;99.90
26270;DHT22;15937;50.612;6.656;2023-03-01T10:02:49;1.00;99.90
26270;DHT22;15937;50.612;6.656;2023-03-01T10:07:15;1.00;99.90
26270;DHT22;15937;50.612;6.656;2023-03-01T10:11:24;0.90;99.90
26270;DHT22;15937;50.612;6.656;2023-03-01T10:15:34;0.90;99.90
26270;DHT22;15937;50.612;6.656;2023-03-01T10:23:39;1.00;99.90
26270;DHT22;15937;50.612;6.656;2023-03-01T10:27:53;0.70;99.90
26270;DHT22;15937;50.612;6.656;2023-03-01T10:31:55;1.10;99.90
26270;DHT22;15937;50.612;6.656;2023-03-01T10:35:57;1.50;99.90
26270;DHT22;15937;50.612;6.656;2023-03-01T11:03:41;1.80;99.90
26270;DHT22;15937;50.612;6.656;2023-03-01T11:11:55;1.90;99.90
26270;DHT22;15937;50.612;6.656;2023-03-01T11:16:01;2.20;99.90
26270;DHT22;15937;50.612;6.656;2023-03-01T11:24:14;2.30;99.90
26270;DHT22;15937;50.612;6.656;2023-03-01T11:28:17;2.40;99.90
26270;DHT22;15937;50.612;6.656;2023-03-01T11:32:20;2.40;99.90
26270;DHT22;15937;50.612;6.656;2023-03-01T11:40:47;2.80;99.90
26270;DHT22;15937;50.612;6.656;2023-03-01T11:44:52;2.90;99.90
26270;DHT22;15937;50.612;6.656;2023-03-01T11:53:13;3.00;99.90
26270;DHT22;15937;50.612;6.656;2023-03-01T12:23:05;3.40;99.90
26270;DHT22;15937;50.612;6.656;2023-03-01T12:27:28;3.40;99.90
26270;DHT22;15937;50.612;6.656;2023-03-01T12:41:09;3.50;99.90
26270;DHT22;15937;50.612;6.656;2023-03-01T12:50:19;3.80;99.90
26270;DHT22;15937;50.612;6.656;2023-03-01T12:54:26;3.80;99.90
26270;DHT22;15937;50.612;6.656;2023-03-01T13:02:49;4.00;99.90
26270;DHT22;15937;50.612;6.656;2023-03-01T13:07:40;3.90;99.90
26270;DHT22;15937;50.612;6.656;2023-03-01T13:11:19;4.30;99.90
26270;DHT22;15937;50.612;6.656;2023-03-01T13:19:24;4.60;99.70
26270;DHT22;15937;50.612;6.656;2023-03-01T13:23:27;4.50;99.30
26270;DHT22;15937;50.612;6.656;2023-03-01T13:27:30;4.80;98.30
26270;DHT22;15937;50.612;6.656;2023-03-01T13:35:42;5.20;97.40
26270;DHT22;15937;50.612;6.656;2023-03-01T13:39:44;5.10;95.10
26270;DHT22;15937;50.612;6.656;2023-03-01T13:43:46;5.10;94.70
26270;DHT22;15937;50.612;6.656;2023-03-01T13:47:50;4.90;93.40
26270;DHT22;15937;50.612;6.656;2023-03-01T13:51:53;5.30;94.40
26270;DHT22;15937;50.612;6.656;2023-03-01T13:55:56;5.30;93.20
26270;DHT22;15937;50.612;6.656;2023-03-01T14:00:00;5.20;92.70
26270;DHT22;15937;50.612;6.656;2023-03-01T14:04:02;5.50;92.70
26270;DHT22;15937;50.612;6.656;2023-03-01T14:08:05;5.50;91.80
26270;DHT22;15937;50.612;6.656;2023-03-01T14:17:32;5.90;92.00
26270;DHT22;15937;50.612;6.656;2023-03-01T14:21:36;5.70;92.00
26270;DHT22;15937;50.612;6.656;2023-03-01T14:25:46;5.80;91.40
26270;DHT22;15937;50.612;6.656;2023-03-01T14:29:58;5.80;90.80
26270;DHT22;15937;50.612;6.656;2023-03-01T14:34:01;5.70;90.50
26270;DHT22;15937;50.612;6.656;2023-03-01T14:38:03;5.70;89.80
26270;DHT22;15937;50.612;6.656;2023-03-01T14:42:04;5.80;90.10
26270;DHT22;15937;50.612;6.656;2023-03-01T14:46:19;5.70;89.60
26270;DHT22;15937;50.612;6.656;2023-03-01T14:50:24;5.80;90.30
26270;DHT22;15937;50.612;6.656;2023-03-01T14:54:27;5.70;89.50
26270;DHT22;15937;50.612;6.656;2023-03-01T14:58:31;5.70;88.90
26270;DHT22;15937;50.612;6.656;2023-03-01T15:02:33;5.80;88.90
26270;DHT22;15937;50.612;6.656;2023-03-01T15:06:35;5.90;90.10
26270;DHT22;15937;50.612;6.656;2023-03-01T15:15:35;5.90;89.80
26270;DHT22;15937;50.612;6.656;2023-03-01T15:19:37;5.80;89.20
26270;DHT22;15937;50.612;6.656;2023-03-01T15:23:39;5.90;89.40
26270;DHT22;15937;50.612;6.656;2023-03-01T15:27:44;6.00;89.60
26270;DHT22;15937;50.612;6.656;2023-03-01T15:36:51;6.00;89.00
26270;DHT22;15937;50.612;6.656;2023-03-01T15:40:54;6.00;88.40
26270;DHT22;15937;50.612;6.656;2023-03-01T15:58:29;6.00;90.50
26270;DHT22;15937;50.612;6.656;2023-03-01T16:02:30;6.00;90.60
26270;DHT22;15937;50.612;6.656;2023-03-01T16:11:37;5.90;91.00
26270;DHT22;15937;50.612;6.656;2023-03-01T16:15:39;5.80;91.10
26270;DHT22;15937;50.612;6.656;2023-03-01T16:19:41;5.80;91.30
26270;DHT22;15937;50.612;6.656;2023-03-01T16:23:43;5.70;92.00
26270;DHT22;15937;50.612;6.656;2023-03-01T16:27:45;5.40;92.80
26270;DHT22;15937;50.612;6.656;2023-03-01T16:31:47;5.30;93.40
26270;DHT22;15937;50.612;6.656;2023-03-01T16:35:50;5.10;94.20
26270;DHT22;15937;50.612;6.656;2023-03-01T16:39:51;5.00;94.70
26270;DHT22;15937;50.612;6.656;2023-03-01T16:43:54;5.00;95.20
26270;DHT22;15937;50.612;6.656;2023-03-01T16:47:56;4.90;95.50
26270;DHT22;15937;50.612;6.656;2023-03-01T16:51:57;4.80;96.10
26270;DHT22;15937;50.612;6.656;2023-03-01T16:56:01;4.60;96.80
26270;DHT22;15937;50.612;6.656;2023-03-01T17:00:04;4.40;97.60
26270;DHT22;15937;50.612;6.656;2023-03-01T17:04:10;4.30;98.70
26270;DHT22;15937;50.612;6.656;2023-03-01T17:08:12;4.30;99.60
26270;DHT22;15937;50.612;6.656;2023-03-01T17:12:16;4.20;99.90
26270;DHT22;15937;50.612;6.656;2023-03-01T17:16:18;4.00;99.90
26270;DHT22;15937;50.612;6.656;2023-03-01T17:20:20;3.90;99.90
26270;DHT22;15937;50.612;6.656;2023-03-01T17:24:22;3.80;99.90
26270;DHT22;15937;50.612;6.656;2023-03-01T17:28:25;3.80;99.90
26270;DHT22;15937;50.612;6.656;2023-03-01T17:32:26;3.70;99.90
26270;DHT22;15937;50.612;6.656;2023-03-01T17:36:28;3.60;99.90
26270;DHT22;15937;50.612;6.656;2023-03-01T17:40:30;3.60;99.90
26270;DHT22;15937;50.612;6.656;2023-03-01T17:44:32;3.60;99.90
26270;DHT22;15937;50.612;6.656;2023-03-01T17:48:35;3.50;99.90
26270;DHT22;15937;50.612;6.656;2023-03-01T17:52:36;3.40;99.90
26270;DHT22;15937;50.612;6.656;2023-03-01T17:56:38;3.30;99.90
26270;DHT22;15937;50.612;6.656;2023-03-01T18:00:41;3.30;99.90
26270;DHT22;15937;50.612;6.656;2023-03-01T18:04:43;3.30;99.90
26270;DHT22;15937;50.612;6.656;2023-03-01T18:08:45;3.20;99.90
26270;DHT22;15937;50.612;6.656;2023-03-01T18:12:47;3.20;99.90
26270;DHT22;15937;50.612;6.656;2023-03-01T18:16:48;3.10;99.90
26270;DHT22;15937;50.612;6.656;2023-03-01T18:20:57;3.10;99.90
26270;DHT22;15937;50.612;6.656;2023-03-01T18:24:59;3.00;99.90
26270;DHT22;15937;50.612;6.656;2023-03-01T18:29:01;3.00;99.90
26270;DHT22;15937;50.612;6.656;2023-03-01T18:33:05;2.90;99.90
26270;DHT22;15937;50.612;6.656;2023-03-01T18:37:07;2.80;99.90
26270;DHT22;15937;50.612;6.656;2023-03-01T18:41:10;2.70;99.90
26270;DHT22;15937;50.612;6.656;2023-03-01T18:45:12;2.60;99.90
26270;DHT22;15937;50.612;6.656;2023-03-01T18:49:15;2.50;99.90
26270;DHT22;15937;50.612;6.656;2023-03-01T18:53:17;2.30;99.90
26270;DHT22;15937;50.612;6.656;2023-03-01T18:57:18;2.30;99.90
26270;DHT22;15937;50.612;6.656;2023-03-01T19:01:24;2.20;99.90
26270;DHT22;15937;50.612;6.656;2023-03-01T19:05:27;1.90;99.90
26270;DHT22;15937;50.612;6.656;2023-03-01T19:09:33;1.90;99.90
26270;DHT22;15937;50.612;6.656;2023-03-01T19:13:43;2.00;99.90
26270;DHT22;15937;50.612;6.656;2023-03-01T19:17:45;1.90;99.90
26270;DHT22;15937;50.612;6.656;2023-03-01T19:21:47;1.70;99.90
26270;DHT22;15937;50.612;6.656;2023-03-01T19:26:04;1.60;99.90
26270;DHT22;15937;50.612;6.656;2023-03-01T19:30:07;1.60;99.90
26270;DHT22;15937;50.612;6.656;2023-03-01T19:34:09;1.40;99.90
26270;DHT22;15937;50.612;6.656;2023-03-01T19:38:13;1.10;99.90
26270;DHT22;15937;50.612;6.656;2023-03-01T19:42:15;1.00;99.90
26270;DHT22;15937;50.612;6.656;2023-03-01T19:46:16;1.00;99.90
26270;DHT22;15937;50.612;6.656;2023-03-01T19:50:18;1.00;99.90
26270;DHT22;15937;50.612;6.656;2023-03-01T19:54:20;0.90;99.90
26270;DHT22;15937;50.612;6.656;2023-03-01T19:58:23;0.70;99.90
26270;DHT22;15937;50.612;6.656;2023-03-01T20:02:24;0.60;99.90
26270;DHT22;15937;50.612;6.656;2023-03-01T20:06:28;0.50;99.90
26270;DHT22;15937;50.612;6.656;2023-03-01T20:10:31;0.60;99.90
26270;DHT22;15937;50.612;6.656;2023-03-01T20:14:33;0.70;99.90
26270;DHT22;15937;50.612;6.656;2023-03-01T20:18:35;0.70;99.90
26270;DHT22;15937;50.612;6.656;2023-03-01T20:22:37;0.30;99.90
26270;DHT22;15937;50.612;6.656;2023-03-01T20:26:39;0.40;99.90
26270;DHT22;15937;50.612;6.656;2023-03-01T20:30:42;0.40;99.90
26270;DHT22;15937;50.612;6.656;2023-03-01T20:34:43;0.40;99.90
26270;DHT22;15937;50.612;6.656;2023-03-01T20:38:45;0.40;99.90
26270;DHT22;15937;50.612;6.656;2023-03-01T20:42:47;0.40;99.90
26270;DHT22;15937;50.612;6.656;2023-03-01T20:46:48;0.30;99.90
26270;DHT22;15937;50.612;6.656;2023-03-01T20:50:51;0.10;99.90
26270;DHT22;15937;50.612;6.656;2023-03-01T20:54:52;0.10;99.90
26270;DHT22;15937;50.612;6.656;2023-03-01T20:58:54;0.10;99.90
26270;DHT22;15937;50.612;6.656;2023-03-01T21:02:58;0.00;99.90
26270;DHT22;15937;50.612;6.656;2023-03-01T21:07:00;-0.10;99.90
26270;DHT22;15937;50.612;6.656;2023-03-01T21:11:03;0.10;99.90
26270;DHT22;15937;50.612;6.656;2023-03-01T21:15:06;-0.20;99.90
26270;DHT22;15937;50.612;6.656;2023-03-01T21:19:11;-0.60;99.90
26270;DHT22;15937;50.612;6.656;2023-03-01T21:23:13;-0.50;99.90
26270;DHT22;15937;50.612;6.656;2023-03-01T21:27:16;-0.60;99.90
26270;DHT22;15937;50.612;6.656;2023-03-01T21:31:19;-0.70;99.90
26270;DHT22;15937;50.612;6.656;2023-03-01T21:35:22;-0.50;99.90
26270;DHT22;15937;50.612;6.656;2023-03-01T21:39:24;-0.50;99.90
26270;DHT22;15937;50.612;6.656;2023-03-01T21:43:31;-0.40;99.90
26270;DHT22;15937;50.612;6.656;2023-03-01T21:47:33;-0.40;99.90
26270;DHT22;15937;50.612;6.656;2023-03-01T21:51:36;-0.60;99.90
26270;DHT22;15937;50.612;6.656;2023-03-01T21:55:44;-0.60;99.90
26270;DHT22;15937;50.612;6.656;2023-03-01T21:59:46;-0.60;99.90
26270;DHT22;15937;50.612;6.656;2023-03-01T22:03:48;-0.60;99.90
26270;DHT22;15937;50.612;6.656;2023-03-01T22:07:53;-0.70;99.90
26270;DHT22;15937;50.612;6.656;2023-03-01T22:11:55;-0.50;99.90
26270;DHT22;15937;50.612;6.656;2023-03-01T22:16:03;-0.50;99.90
26270;DHT22;15937;50.612;6.656;2023-03-01T22:20:04;-0.70;99.90
26270;DHT22;15937;50.612;6.656;2023-03-01T22:24:07;-0.80;99.90
26270;DHT22;15937;50.612;6.656;2023-03-01T22:28:09;-0.90;99.90
26270;DHT22;15937;50.612;6.656;2023-03-01T22:32:10;-1.20;99.90
26270;DHT22;15937;50.612;6.656;2023-03-01T22:36:12;-1.00;99.90
26270;DHT22;15937;50.612;6.656;2023-03-01T22:40:14;-0.90;99.90
26270;DHT22;15937;50.612;6.656;2023-03-01T22:44:21;-0.80;99.90
26270;DHT22;15937;50.612;6.656;2023-03-01T22:48:23;-0.70;99.90
26270;DHT22;15937;50.612;6.656;2023-03-01T22:52:25;-0.90;99.90
26270;DHT22;15937;50.612;6.656;2023-03-01T22:56:27;-0.90;99.90
26270;DHT22;15937;50.612;6.656;2023-03-01T23:00:29;-1.00;99.90
26270;DHT22;15937;50.612;6.656;2023-03-01T23:04:31;-0.90;99.90
26270;DHT22;15937;50.612;6.656;2023-03-01T23:08:33;-0.90;99.90
26270;DHT22;15937;50.612;6.656;2023-03-01T23:12:34;-1.00;99.90
26270;DHT22;15937;50.612;6.656;2023-03-01T23:16:36;-1.00;99.90
26270;DHT22;15937;50.612;6.656;2023-03-01T23:20:37;-1.00;99.90
26270;DHT22;15937;50.612;6.656;2023-03-01T23:24:39;-1.10;99.90
26270;DHT22;15937;50.612;6.656;2023-03-01T23:28:41;-1.20;99.90
26270;DHT22;15937;50.612;6.656;2023-03-01T23:32:43;-1.30;99.90
26270;DHT22;15937;50.612;6.656;2023-03-01T23:36:44;-1.20;99.90
26270;DHT22;15937;50.612;6.656;2023-03-01T23:40:46;-1.20;99.90
26270;DHT22;15937;50.612;6.656;2023-03-01T23:44:48;-1.20;99.90
26270;DHT22;15937;50.612;6.656;2023-03-01T23:48:50;-1.20;99.90
26270;DHT22;15937;50.612;6.656;2023-03-01T23:52:51;-1.30;99.90
26270;DHT22;15937;50.612;6.656;2023-03-01T23:56:53;-1.10;99.90
